Time;durP1;ratioP1;P1;durP2;ratioP2;P2;SDS_P1;SDS_P2;PMS_P1;PMS_P2;Temp;Humidity;BMP_temperature;BMP_pressure;BME280_temperature;BME280_humidity;BME280_pressure;Samples;Min_cycle;Max_cycle;Signal;HPM_P1;HPM_P2
2022/01/05 00:00:27;;;;;;;39.18;25.91;;;;;;;2.08;71.38;100294.97;444202;117;922630;-71
2022/01/05 00:01:30;;;;;;;43.14;27.49;;;;;;;2.12;71.48;100281.17;429413;122;930576;-71
2022/01/05 00:02:39;;;;;;;45.36;27.12;;;;;;;2.15;71.63;100287.05;439136;115;922838;-72
2022/01/05 00:03:43;;;;;;;39.92;25.56;;;;;;;2.19;71.70;100277.66;451893;115;922667;-72
2022/01/05 00:04:47;;;;;;;41.14;25.79;;;;;;;2.21;71.68;100289.06;452197;115;922543;-72
2022/01/05 00:05:50;;;;;;;42.17;27.07;;;;;;;2.22;71.62;100279.14;451707;115;930476;-72
2022/01/05 00:06:53;;;;;;;39.94;25.99;;;;;;;2.23;71.64;100295.13;450744;115;922582;-74
2022/01/05 00:07:56;;;;;;;46.51;29.33;;;;;;;2.23;71.70;100286.21;450475;115;922493;-72
2022/01/05 00:09:00;;;;;;;44.14;27.37;;;;;;;2.22;71.75;100284.53;452754;115;922493;-71
2022/01/05 00:10:04;;;;;;;44.66;27.38;;;;;;;2.23;71.78;100280.83;455689;115;923031;-71
2022/01/05 00:11:07;;;;;;;39.78;27.44;;;;;;;2.23;71.85;100280.83;455110;115;922630;-71
2022/01/05 00:12:11;;;;;;;39.16;27.28;;;;;;;2.24;71.90;100285.20;454487;115;923342;-72
2022/01/05 00:13:14;;;;;;;40.25;26.56;;;;;;;2.21;71.80;100278.30;454262;115;922463;-72
2022/01/05 00:14:17;;;;;;;45.64;29.98;;;;;;;2.20;71.85;100273.12;455886;115;922774;-72
2022/01/05 00:15:20;;;;;;;43.68;32.75;;;;;;;2.18;71.80;100277.81;455413;115;922685;-72
2022/01/05 00:16:24;;;;;;;44.81;32.59;;;;;;;2.16;71.68;100279.81;453910;115;922959;-71
2022/01/05 00:17:28;;;;;;;47.42;33.28;;;;;;;2.13;71.50;100278.32;454275;115;923048;-72
2022/01/05 00:18:32;;;;;;;49.19;34.08;;;;;;;2.06;71.28;100280.83;454620;115;928398;-72
2022/01/05 00:19:36;;;;;;;49.75;34.94;;;;;;;2.06;71.28;100280.83;454745;115;922894;-72
2022/01/05 00:20:41;;;;;;;50.52;34.08;;;;;;;2.03;71.17;100291.94;453051;115;922725;-71
2022/01/05 00:21:44;;;;;;;44.19;32.72;;;;;;;2.00;71.22;100289.56;452925;115;922688;-72
2022/01/05 00:22:47;;;;;;;51.96;34.21;;;;;;;1.98;71.26;100290.76;454562;115;922618;-72
2022/01/05 00:23:51;;;;;;;41.24;31.33;;;;;;;1.96;71.22;100298.14;453776;115;922696;-72
2022/01/05 00:24:54;;;;;;;45.46;32.60;;;;;;;1.93;71.27;100293.92;453256;115;922705;-72
2022/01/05 00:25:59;;;;;;;46.01;32.16;;;;;;;1.91;71.39;100287.89;452720;115;922565;-72
2022/01/05 00:27:03;;;;;;;46.34;31.94;;;;;;;1.91;71.50;100293.27;452640;115;922693;-72
2022/01/05 00:28:07;;;;;;;48.66;32.11;;;;;;;1.91;71.61;100292.42;451868;115;922676;-71
2022/01/05 00:29:10;;;;;;;45.23;32.76;;;;;;;1.92;71.58;100284.20;452315;115;922620;-72
2022/01/05 00:30:14;;;;;;;52.71;32.98;;;;;;;1.94;71.65;100287.54;451270;115;922697;-71
2022/01/05 00:31:17;;;;;;;49.15;34.39;;;;;;;1.95;71.78;100294.61;453330;115;930531;-72
2022/01/05 00:32:20;;;;;;;141.11;82.25;;;;;;;1.96;71.80;100300.83;451526;115;922623;-70
2022/01/05 00:33:24;;;;;;;138.81;83.18;;;;;;;1.95;71.86;100301.83;440454;117;922444;-70
2022/01/05 00:34:27;;;;;;;108.38;66.84;;;;;;;1.94;72.18;100295.61;442211;117;922702;-70
2022/01/05 00:35:30;;;;;;;89.80;52.12;;;;;;;1.97;72.35;100292.60;445650;117;922424;-71
2022/01/05 00:36:34;;;;;;;86.41;51.97;;;;;;;2.01;72.50;100295.78;446444;117;922547;-71
2022/01/05 00:37:37;;;;;;;55.93;36.42;;;;;;;2.05;72.53;100289.91;445320;117;930751;-71
2022/01/05 00:38:41;;;;;;;58.96;37.49;;;;;;;2.10;72.67;100289.39;445730;117;922690;-71
2022/01/05 00:39:44;;;;;;;61.55;41.23;;;;;;;2.16;72.75;100293.27;446121;117;930295;-73
2022/01/05 00:40:48;;;;;;;105.91;60.73;;;;;;;2.22;72.58;100306.89;437175;120;922575;-71
2022/01/05 00:41:51;;;;;;;165.55;90.75;;;;;;;2.23;72.41;100299.66;436701;117;922664;-69
2022/01/05 00:42:55;;;;;;;153.79;92.26;;;;;;;2.22;72.46;100290.75;445028;117;922535;-71
2022/01/05 00:43:58;;;;;;;152.60;86.46;;;;;;;2.23;72.59;100287.05;436903;119;922532;-72
2022/01/05 00:45:02;;;;;;;159.24;85.70;;;;;;;2.27;72.74;100290.23;445020;117;923125;-72
2022/01/05 00:46:06;;;;;;;149.85;81.38;;;;;;;2.27;72.77;100290.23;444952;117;922967;-72
2022/01/05 00:47:09;;;;;;;145.04;79.78;;;;;;;2.29;72.87;100293.61;439087;118;922546;-71
2022/01/05 00:48:13;;;;;;;146.88;81.53;;;;;;;2.29;72.84;100285.55;441416;118;922552;-72
2022/01/05 00:49:17;;;;;;;146.31;78.85;;;;;;;2.28;72.85;100286.55;442633;118;923045;-72
2022/01/05 00:50:20;;;;;;;143.25;80.14;;;;;;;2.27;72.93;100288.39;439146;119;923059;-72
2022/01/05 00:51:24;;;;;;;143.25;77.84;;;;;;;2.28;73.01;100284.70;438457;119;922505;-72
2022/01/05 00:52:27;;;;;;;135.58;74.53;;;;;;;2.28;73.14;100282.01;437456;119;922507;-72
2022/01/05 00:53:31;;;;;;;130.41;71.16;;;;;;;2.31;73.24;100283.53;438106;119;923019;-72
2022/01/05 00:54:34;;;;;;;115.78;65.39;;;;;;;2.32;73.38;100280.66;434827;120;922837;-71
2022/01/05 00:55:37;;;;;;;113.91;61.27;;;;;;;2.37;73.47;100280.17;434770;120;922777;-72
2022/01/05 00:56:41;;;;;;;109.16;60.01;;;;;;;2.39;73.57;100281.66;434636;120;922848;-71
2022/01/05 00:57:45;;;;;;;103.96;58.29;;;;;;;2.41;73.52;100281.50;434812;120;922941;-72
2022/01/05 00:58:49;;;;;;;95.08;47.82;;;;;;;2.43;73.56;100280.31;441916;118;922583;-71
2022/01/05 00:59:52;;;;;;;77.66;41.69;;;;;;;2.43;73.57;100285.69;442176;118;922679;-71
2022/01/05 01:00:56;;;;;;;75.98;37.75;;;;;;;2.42;73.69;100284.03;442261;118;922640;-71
2022/01/05 01:02:00;;;;;;;70.05;36.15;;;;;;;2.41;73.84;100279.66;429399;121;923008;-71
2022/01/05 01:03:03;;;;;;;65.45;34.92;;;;;;;2.41;74.00;100292.27;446899;115;922720;-72
2022/01/05 01:04:07;;;;;;;63.07;32.98;;;;;;;2.41;74.13;100281.50;455426;115;930434;-71
2022/01/05 01:05:13;;;;;;;67.76;35.29;;;;;;;2.41;74.30;100284.20;455638;115;922694;-72
2022/01/05 01:06:16;;;;;;;66.28;34.99;;;;;;;2.43;74.51;100279.46;455064;115;922867;-72
2022/01/05 01:07:19;;;;;;;69.61;32.88;;;;;;;2.47;74.69;100288.90;454025;115;922648;-72
2022/01/05 01:08:23;;;;;;;63.50;33.06;;;;;;;2.50;74.77;100281.31;454805;115;930381;-72
2022/01/05 01:09:26;;;;;;;67.46;33.36;;;;;;;2.55;74.86;100275.42;453277;115;923097;-72
2022/01/05 01:10:29;;;;;;;63.14;33.30;;;;;;;2.60;74.95;100277.59;452907;115;930566;-72
2022/01/05 01:11:33;;;;;;;65.19;33.28;;;;;;;2.63;74.95;100278.11;453169;115;922640;-72
2022/01/05 01:12:36;;;;;;;67.96;34.27;;;;;;;2.66;75.02;100274.22;454248;115;923041;-71
2022/01/05 01:13:39;;;;;;;65.50;33.09;;;;;;;2.70;75.10;100272.89;454671;115;922788;-72
2022/01/05 01:14:43;;;;;;;65.91;31.44;;;;;;;2.74;75.17;100275.06;453063;115;923219;-71
2022/01/05 01:15:47;;;;;;;65.23;34.46;;;;;;;2.79;75.19;100279.92;451837;115;930512;-72
2022/01/05 01:16:51;;;;;;;65.43;32.48;;;;;;;2.83;75.16;100275.86;452286;115;923454;-72
2022/01/05 01:17:54;;;;;;;66.04;34.15;;;;;;;2.87;75.22;100274.50;452495;115;922987;-72
2022/01/05 01:18:58;;;;;;;61.39;31.24;;;;;;;2.92;75.22;100277.55;452014;115;922603;-72
2022/01/05 01:20:01;;;;;;;64.01;33.03;;;;;;;2.96;75.25;100284.25;451430;115;930417;-72
2022/01/05 01:21:05;;;;;;;63.98;32.76;;;;;;;3.00;75.21;100273.97;451018;115;923411;-72
2022/01/05 01:22:08;;;;;;;64.11;32.08;;;;;;;3.03;75.14;100269.09;451396;115;930324;-72
2022/01/05 01:23:11;;;;;;;63.63;33.07;;;;;;;3.05;75.12;100277.81;453892;115;922627;-72
2022/01/05 01:24:15;;;;;;;60.61;30.77;;;;;;;3.08;75.05;100271.25;453424;115;922665;-72
2022/01/05 01:25:18;;;;;;;64.94;33.44;;;;;;;3.10;75.00;100275.44;455152;115;930575;-72
2022/01/05 01:26:29;;;;;;;69.71;34.17;;;;;;;3.12;75.00;100270.73;455601;115;923183;-71
2022/01/05 01:27:33;;;;;;;61.43;30.46;;;;;;;3.15;74.89;100262.28;453412;115;930455;-72
2022/01/05 01:28:36;;;;;;;64.09;34.23;;;;;;;3.16;74.87;100263.13;453565;115;922550;-72
2022/01/05 01:29:39;;;;;;;60.01;31.50;;;;;;;3.18;74.90;100258.41;454756;115;923138;-71
2022/01/05 01:30:43;;;;;;;62.18;32.23;;;;;;;3.19;74.81;100254.71;455197;115;922673;-72
2022/01/05 01:31:47;;;;;;;62.74;32.25;;;;;;;3.20;74.72;100253.67;445862;117;923291;-73
2022/01/05 01:32:51;;;;;;;59.49;32.06;;;;;;;3.20;74.76;100245.59;446106;115;922766;-73
2022/01/05 01:33:55;;;;;;;67.56;32.81;;;;;;;3.20;74.77;100241.05;453917;115;930524;-71
2022/01/05 01:34:58;;;;;;;66.04;33.84;;;;;;;3.22;74.83;100247.11;453951;115;922608;-71
2022/01/05 01:36:02;;;;;;;64.93;33.31;;;;;;;3.24;74.84;100244.25;453019;115;930465;-72
2022/01/05 01:37:05;;;;;;;68.74;33.91;;;;;;;3.25;74.89;100240.55;453367;115;922937;-71
2022/01/05 01:38:08;;;;;;;66.91;33.57;;;;;;;3.26;74.91;100237.65;453072;115;922661;-71
2022/01/05 01:39:12;;;;;;;65.49;33.52;;;;;;;3.29;74.84;100244.55;453294;115;930369;-73
2022/01/05 01:40:16;;;;;;;59.57;31.65;;;;;;;3.29;74.75;100236.47;453355;115;923070;-73
2022/01/05 01:41:19;;;;;;;63.54;32.30;;;;;;;3.28;74.72;100229.40;452772;115;922747;-72
2022/01/05 01:42:23;;;;;;;63.98;32.53;;;;;;;3.29;74.84;100233.78;451031;115;930502;-71
2022/01/05 01:43:26;;;;;;;64.67;33.34;;;;;;;3.29;74.85;100220.30;451480;115;923029;-72
2022/01/05 01:44:29;;;;;;;56.17;31.79;;;;;;;3.30;74.85;100219.30;451799;115;922762;-72
2022/01/05 01:45:34;;;;;;;62.94;33.54;;;;;;;3.32;74.84;100219.94;452110;115;922551;-72
2022/01/05 01:46:37;;;;;;;55.79;32.09;;;;;;;3.33;74.90;100221.62;451599;115;922613;-71
2022/01/05 01:47:41;;;;;;;56.57;30.97;;;;;;;3.34;74.92;100220.61;450843;115;922849;-71
2022/01/05 01:48:45;;;;;;;57.91;30.74;;;;;;;3.36;74.93;100215.90;455932;115;922623;-72
2022/01/05 01:49:48;;;;;;;59.51;30.94;;;;;;;3.36;75.02;100216.70;452501;115;922623;-71
2022/01/05 01:50:51;;;;;;;57.58;30.93;;;;;;;3.39;75.02;100212.83;454266;115;922610;-72
2022/01/05 01:51:54;;;;;;;58.96;32.11;;;;;;;3.39;74.96;100215.53;453885;115;923299;-71
2022/01/05 01:52:59;;;;;;;57.72;31.34;;;;;;;3.42;75.00;100214.34;454507;115;923214;-71
2022/01/05 01:54:04;;;;;;;54.10;30.49;;;;;;;3.41;74.98;100221.59;453306;115;923250;-71
2022/01/05 01:55:09;;;;;;;61.07;32.12;;;;;;;3.42;74.81;100219.73;454126;115;922523;-72
2022/01/05 01:56:14;;;;;;;51.94;30.19;;;;;;;3.40;74.63;100222.60;452905;115;922771;-72
2022/01/05 01:57:20;;;;;;;50.91;30.28;;;;;;;3.36;74.57;100227.48;453641;115;922947;-72
2022/01/05 01:58:26;;;;;;;59.38;31.83;;;;;;;3.34;74.51;100223.30;453806;115;922546;-73
2022/01/05 01:59:29;;;;;;;57.37;32.64;;;;;;;3.31;74.60;100226.34;452477;115;922624;-72
2022/01/05 02:00:32;;;;;;;61.61;31.91;;;;;;;3.30;74.77;100222.83;453267;115;922669;-71
2022/01/05 02:01:36;;;;;;;56.59;30.66;;;;;;;3.31;74.91;100220.95;453318;115;922654;-73
2022/01/05 02:02:40;;;;;;;52.67;31.08;;;;;;;3.32;74.93;100226.17;452953;115;923402;-71
2022/01/05 02:03:43;;;;;;;53.56;31.34;;;;;;;3.32;74.85;100226.17;453256;115;923086;-72
2022/01/05 02:04:46;;;;;;;52.62;30.39;;;;;;;3.32;74.89;100230.72;452632;115;922699;-71
2022/01/05 02:05:50;;;;;;;54.16;30.29;;;;;;;3.32;74.87;100228.02;451844;115;922860;-72
2022/01/05 02:06:53;;;;;;;47.34;30.04;;;;;;;3.32;74.77;100222.63;452644;115;922542;-72
2022/01/05 02:07:56;;;;;;;55.18;29.99;;;;;;;3.29;74.64;100237.31;452270;115;922576;-72
2022/01/05 02:09:00;;;;;;;55.61;30.48;;;;;;;3.27;74.64;100238.48;450745;115;923607;-71
2022/01/05 02:10:06;;;;;;;50.15;28.95;;;;;;;3.24;74.64;100230.77;450803;115;922664;-72
2022/01/05 02:11:12;;;;;;;55.56;31.12;;;;;;;3.23;74.79;100231.78;451549;115;922547;-72
2022/01/05 02:12:15;;;;;;;57.33;30.97;;;;;;;3.23;74.85;100229.09;453863;115;923151;-71
2022/01/05 02:13:18;;;;;;;50.46;30.25;;;;;;;3.24;74.98;100233.47;453900;115;922608;-71
2022/01/05 02:14:22;;;;;;;47.91;29.15;;;;;;;3.25;75.14;100230.58;454367;115;922620;-72
2022/01/05 02:15:25;;;;;;;51.18;30.38;;;;;;;3.28;75.26;100232.94;454798;115;922517;-72
2022/01/05 02:16:33;;;;;;;47.93;29.95;;;;;;;3.31;75.25;100224.48;454516;115;923084;-71
2022/01/05 02:17:50;;;;;;;52.20;28.45;;;;;;;3.34;75.33;100226.00;453410;115;923231;-72
2022/01/05 02:18:59;;;;;;;47.07;27.27;;;;;;;3.38;75.34;100234.56;451241;115;923373;-70
2022/01/05 02:20:06;;;;;;;48.80;29.58;;;;;;;3.39;75.39;100231.70;453453;115;922943;-73
2022/01/05 02:21:12;;;;;;;46.29;29.39;;;;;;;3.42;75.30;100227.82;453361;115;923672;-72
2022/01/05 02:22:15;;;;;;;49.78;29.66;;;;;;;3.41;75.22;100226.98;452672;115;922646;-72
2022/01/05 02:23:18;;;;;;;46.83;28.43;;;;;;;3.42;75.14;100227.82;453996;115;922710;-72
2022/01/05 02:24:22;;;;;;;50.03;30.01;;;;;;;3.41;75.02;100236.92;453102;115;922493;-72
2022/01/05 02:25:26;;;;;;;46.11;28.19;;;;;;;3.38;74.95;100234.56;454037;115;922976;-72
2022/01/05 02:26:30;;;;;;;43.41;28.72;;;;;;;3.34;75.02;100226.84;452682;115;922607;-72
2022/01/05 02:27:33;;;;;;;47.54;28.16;;;;;;;3.34;75.13;100242.17;452674;115;930333;-72
2022/01/05 02:28:36;;;;;;;43.32;28.01;;;;;;;3.34;75.20;100223.30;452565;115;922587;-72
2022/01/05 02:29:39;;;;;;;43.62;27.67;;;;;;;3.34;75.27;100240.31;452985;115;922747;-71
2022/01/05 02:30:43;;;;;;;45.74;27.66;;;;;;;3.35;75.28;100227.69;453261;115;922562;-72
2022/01/05 02:31:47;;;;;;;42.04;26.58;;;;;;;3.34;75.28;100234.08;452023;115;922504;-73
2022/01/05 02:32:50;;;;;;;40.94;24.92;;;;;;;3.34;75.33;100242.17;451030;115;922744;-71
2022/01/05 02:33:54;;;;;;;37.67;24.80;;;;;;;3.33;75.39;100238.62;452358;115;923158;-71
2022/01/05 02:34:57;;;;;;;41.95;24.44;;;;;;;3.33;75.46;100237.79;450806;115;923234;-71
2022/01/05 02:36:04;;;;;;;34.49;22.47;;;;;;;3.33;75.58;100240.48;450922;115;922594;-71
2022/01/05 02:37:07;;;;;;;34.23;22.29;;;;;;;3.34;75.68;100236.78;453146;115;922935;-71
2022/01/05 02:38:10;;;;;;;28.41;20.07;;;;;;;3.35;75.78;100239.30;455446;115;922518;-72
2022/01/05 02:39:13;;;;;;;26.72;19.54;;;;;;;3.34;75.85;100226.84;454728;115;922600;-71
2022/01/05 02:40:19;;;;;;;22.69;19.46;;;;;;;3.34;75.93;100232.23;453488;115;922806;-72
2022/01/05 02:41:23;;;;;;;26.93;19.43;;;;;;;3.34;75.97;100236.78;454255;115;930600;-71
2022/01/05 02:42:27;;;;;;;21.89;18.86;;;;;;;3.33;76.06;100229.70;454395;115;922977;-72
2022/01/05 02:43:31;;;;;;;23.98;19.08;;;;;;;3.30;76.11;100232.77;454421;115;930537;-73
2022/01/05 02:44:34;;;;;;;22.11;18.48;;;;;;;3.29;76.20;100229.23;454407;115;923182;-72
2022/01/05 02:45:38;;;;;;;22.44;19.04;;;;;;;3.28;76.31;100235.62;454798;115;922571;-72
2022/01/05 02:46:41;;;;;;;22.30;18.38;;;;;;;3.27;76.46;100231.25;454669;115;922593;-72
2022/01/05 02:47:44;;;;;;;23.04;19.18;;;;;;;3.26;76.50;100223.34;454380;114;930536;-73
2022/01/05 02:48:51;;;;;;;24.49;19.19;;;;;;;3.25;76.51;100235.16;458484;113;922727;-71
2022/01/05 02:49:58;;;;;;;24.04;19.34;;;;;;;3.23;76.62;100234.48;458991;114;922568;-72
2022/01/05 02:51:01;;;;;;;24.90;18.87;;;;;;;3.22;76.75;100235.48;460311;113;922519;-72
2022/01/05 02:52:05;;;;;;;23.13;19.09;;;;;;;3.22;76.79;100240.87;459190;111;922479;-71
2022/01/05 02:53:08;;;;;;;23.52;19.52;;;;;;;3.21;76.89;100245.42;458659;112;922582;-72
2022/01/05 02:54:12;;;;;;;27.81;19.06;;;;;;;3.21;76.94;100229.26;458443;114;922627;-72
2022/01/05 02:55:15;;;;;;;25.70;18.91;;;;;;;3.22;77.03;100235.48;457062;114;930231;-72
2022/01/05 02:56:20;;;;;;;29.04;20.56;;;;;;;3.22;77.05;100232.80;457096;113;922500;-72
2022/01/05 02:57:23;;;;;;;29.72;19.67;;;;;;;3.22;77.13;100235.48;457266;114;930314;-70
2022/01/05 02:58:26;;;;;;;27.91;20.20;;;;;;;3.21;77.15;100229.26;457657;114;923557;-72
2022/01/05 02:59:30;;;;;;;28.41;19.40;;;;;;;3.22;77.23;100232.80;456840;114;922623;-72
2022/01/05 03:00:33;;;;;;;30.13;20.05;;;;;;;3.22;77.28;100230.10;457281;114;931127;-72
2022/01/05 03:01:38;;;;;;;27.57;20.50;;;;;;;3.22;77.23;100232.80;456299;113;922433;-71
2022/01/05 03:02:42;;;;;;;29.37;19.99;;;;;;;3.20;77.23;100230.27;458103;114;922528;-73
2022/01/05 03:03:45;;;;;;;30.69;19.36;;;;;;;3.19;77.25;100230.47;459628;114;922916;-71
2022/01/05 03:04:48;;;;;;;26.87;19.55;;;;;;;3.17;77.25;100229.79;459411;113;922586;-71
2022/01/05 03:05:52;;;;;;;25.64;20.06;;;;;;;3.14;77.32;100239.05;458848;114;922569;-73
2022/01/05 03:06:55;;;;;;;25.41;19.65;;;;;;;3.11;77.40;100242.11;460012;114;922901;-71
2022/01/05 03:07:58;;;;;;;29.41;19.81;;;;;;;3.10;77.44;100234.19;459737;113;922661;-72
2022/01/05 03:09:01;;;;;;;29.63;20.93;;;;;;;3.08;77.50;100231.70;458893;113;922986;-70
2022/01/05 03:10:06;;;;;;;26.18;20.21;;;;;;;3.06;77.58;100232.88;456827;114;922877;-71
2022/01/05 03:11:09;;;;;;;31.47;20.13;;;;;;;3.07;77.71;100229.17;458822;113;922606;-71
2022/01/05 03:12:13;;;;;;;26.41;18.67;;;;;;;3.08;77.87;100233.55;458986;113;922759;-71
2022/01/05 03:13:16;;;;;;;25.12;18.94;;;;;;;3.08;77.85;100223.62;458335;113;930867;-72
2022/01/05 03:14:21;;;;;;;25.09;19.49;;;;;;;3.09;77.92;100217.19;458430;114;930053;-71
2022/01/05 03:15:24;;;;;;;24.97;19.33;;;;;;;3.11;77.93;100225.94;458415;114;923433;-71
2022/01/05 03:16:27;;;;;;;30.29;20.48;;;;;;;3.12;78.00;100219.55;457783;113;922547;-71
2022/01/05 03:17:30;;;;;;;27.79;19.82;;;;;;;3.12;77.94;100224.09;458350;114;922678;-70
2022/01/05 03:18:34;;;;;;;26.89;18.69;;;;;;;3.11;77.98;100225.10;457616;114;930337;-71
2022/01/05 03:19:37;;;;;;;28.71;21.11;;;;;;;3.11;77.91;100225.94;457945;114;923150;-70
2022/01/05 03:20:41;;;;;;;34.01;20.91;;;;;;;3.09;77.92;100225.27;457512;113;923106;-71
2022/01/05 03:21:45;;;;;;;27.35;19.55;;;;;;;3.08;77.94;100230.86;456464;114;922650;-72
2022/01/05 03:22:49;;;;;;;32.34;20.84;;;;;;;3.06;78.05;100228.33;457152;113;922806;-72
2022/01/05 03:23:52;;;;;;;35.45;20.81;;;;;;;3.06;78.20;100233.71;456791;114;923337;-72
2022/01/05 03:24:56;;;;;;;23.10;19.21;;;;;;;3.08;78.30;100238.94;457371;113;922514;-72
2022/01/05 03:25:59;;;;;;;35.26;20.94;;;;;;;3.09;78.27;100237.92;456704;114;923238;-72
2022/01/05 03:27:03;;;;;;;33.28;20.02;;;;;;;3.09;78.28;100235.23;458151;113;922810;-73
2022/01/05 03:28:06;;;;;;;29.36;19.49;;;;;;;3.09;78.33;100233.34;459504;113;923038;-72
2022/01/05 03:29:09;;;;;;;34.78;21.25;;;;;;;3.10;78.34;100236.89;457167;113;930928;-71
2022/01/05 03:30:16;;;;;;;27.18;19.76;;;;;;;3.10;78.37;100232.34;458517;114;923258;-72
2022/01/05 03:31:19;;;;;;;32.30;19.87;;;;;;;3.13;78.47;100231.16;459426;113;922717;-72
2022/01/05 03:32:24;;;;;;;30.66;19.23;;;;;;;3.16;78.61;100236.19;459052;114;922646;-72
2022/01/05 03:33:28;;;;;;;31.53;19.86;;;;;;;3.20;78.58;100235.66;459727;113;922869;-72
2022/01/05 03:34:32;;;;;;;25.92;19.91;;;;;;;3.22;78.60;100227.41;458852;113;922674;-72
2022/01/05 03:35:41;;;;;;;28.15;19.78;;;;;;;3.25;78.64;100227.07;457706;114;922756;-72
2022/01/05 03:36:45;;;;;;;27.42;20.04;;;;;;;3.27;78.61;100225.02;458338;114;922595;-72
2022/01/05 03:37:48;;;;;;;25.39;18.42;;;;;;;3.28;78.47;100229.40;458583;113;922848;-72
2022/01/05 03:38:51;;;;;;;25.21;19.61;;;;;;;3.28;78.39;100229.40;444057;117;922702;-72
2022/01/05 03:39:55;;;;;;;27.96;19.51;;;;;;;3.26;78.31;100226.03;458083;113;922769;-72
2022/01/05 03:40:58;;;;;;;26.19;19.70;;;;;;;3.24;78.27;100228.92;459346;114;922561;-72
2022/01/05 03:42:02;;;;;;;25.01;18.40;;;;;;;3.26;78.38;100226.03;459002;113;930612;-71
2022/01/05 03:43:07;;;;;;;24.31;18.29;;;;;;;3.26;78.51;100223.34;458458;114;922997;-70
2022/01/05 03:44:10;;;;;;;24.15;18.91;;;;;;;3.28;78.56;100218.62;458556;113;922484;-71
2022/01/05 03:45:13;;;;;;;29.93;18.96;;;;;;;3.28;78.53;100218.62;458468;113;930317;-72
2022/01/05 03:46:17;;;;;;;27.01;19.69;;;;;;;3.31;78.48;100220.95;458509;114;930151;-72
2022/01/05 03:47:20;;;;;;;25.41;18.94;;;;;;;3.30;78.45;100213.91;457301;114;930113;-72
2022/01/05 03:48:24;;;;;;;25.45;18.72;;;;;;;3.30;78.46;100208.52;455918;114;922676;-71
2022/01/05 03:49:27;;;;;;;22.54;18.77;;;;;;;3.31;78.42;100207.48;443199;117;923098;-71
2022/01/05 03:50:30;;;;;;;24.10;18.27;;;;;;;3.29;78.33;100213.06;440857;118;922809;-71
2022/01/05 03:51:34;;;;;;;26.14;20.11;;;;;;;3.30;78.38;100208.52;441185;117;922566;-71
2022/01/05 03:52:37;;;;;;;24.35;19.46;;;;;;;3.31;78.39;100208.31;437661;119;922921;-71
2022/01/05 03:53:40;;;;;;;27.79;19.12;;;;;;;3.32;78.36;100214.55;448298;117;922965;-72
2022/01/05 03:54:44;;;;;;;23.67;19.65;;;;;;;3.31;78.29;100210.17;440779;119;923198;-72
2022/01/05 03:55:47;;;;;;;22.55;18.51;;;;;;;3.31;78.21;100207.48;447129;116;923001;-72
2022/01/05 03:56:51;;;;;;;25.06;19.47;;;;;;;3.30;78.18;100205.82;439592;118;922945;-72
2022/01/05 03:57:54;;;;;;;22.31;18.85;;;;;;;3.30;78.29;100198.58;447164;117;930886;-72
2022/01/05 03:58:57;;;;;;;29.37;20.29;;;;;;;3.31;78.38;100192.16;439220;119;922858;-72
2022/01/05 04:00:01;;;;;;;22.01;18.84;;;;;;;3.34;78.40;100191.81;434881;119;922952;-74
2022/01/05 04:01:04;;;;;;;25.90;19.51;;;;;;;3.37;78.44;100195.98;438034;120;922696;-72
2022/01/05 04:02:08;;;;;;;25.74;19.16;;;;;;;3.39;78.47;100193.13;432112;119;930329;-70
2022/01/05 04:03:12;;;;;;;25.35;19.69;;;;;;;3.42;78.51;100192.79;439654;119;922724;-71
2022/01/05 04:04:15;;;;;;;27.54;19.48;;;;;;;3.45;78.44;100192.42;445381;116;922632;-72
2022/01/05 04:05:19;;;;;;;24.61;18.89;;;;;;;3.45;78.35;100187.03;443582;118;930458;-71
2022/01/05 04:06:24;;;;;;;23.92;18.92;;;;;;;3.45;78.25;100187.88;439119;120;925126;-70
2022/01/05 04:07:27;;;;;;;30.62;18.84;;;;;;;3.45;78.21;100193.26;438111;118;922656;-71
2022/01/05 04:08:31;;;;;;;25.32;18.92;;;;;;;3.46;78.17;100188.71;433646;119;922782;-70
2022/01/05 04:09:34;;;;;;;23.52;18.44;;;;;;;3.45;78.15;100187.03;437963;118;930162;-72
2022/01/05 04:10:39;;;;;;;23.49;17.89;;;;;;;3.46;78.15;100188.71;438931;118;922940;-71
2022/01/05 04:11:42;;;;;;;27.73;18.61;;;;;;;3.46;78.22;100184.16;446215;116;922618;-71
2022/01/05 04:12:46;;;;;;;25.34;18.11;;;;;;;3.48;78.29;100181.27;445793;117;929507;-72
2022/01/05 04:13:50;;;;;;;24.58;16.84;;;;;;;3.50;78.36;100179.24;444692;116;922718;-72
2022/01/05 04:14:53;;;;;;;19.92;17.71;;;;;;;3.50;78.37;100188.17;443858;116;931035;-72
2022/01/05 04:15:56;;;;;;;22.44;18.31;;;;;;;3.53;78.35;100185.10;443421;116;922754;-72
2022/01/05 04:17:00;;;;;;;23.82;18.35;;;;;;;3.54;78.32;100181.39;443592;116;930561;-72
2022/01/05 04:18:03;;;;;;;23.42;19.12;;;;;;;3.55;78.28;100182.23;444541;116;922615;-72
2022/01/05 04:19:07;;;;;;;25.61;17.84;;;;;;;3.55;78.21;100177.69;436257;118;930778;-72
2022/01/05 04:20:12;;;;;;;28.85;18.05;;;;;;;3.54;78.19;100178.70;434046;120;922602;-73
2022/01/05 04:21:15;;;;;;;28.49;18.85;;;;;;;3.54;78.23;100180.55;437481;119;923143;-72
2022/01/05 04:22:19;;;;;;;21.97;17.89;;;;;;;3.54;78.25;100178.70;436948;119;922575;-72
2022/01/05 04:23:22;;;;;;;23.40;18.74;;;;;;;3.56;78.26;100173.98;438860;119;930614;-72
2022/01/05 04:24:25;;;;;;;23.32;16.66;;;;;;;3.56;78.18;100176.67;439954;118;922661;-72
2022/01/05 04:25:29;;;;;;;24.49;18.39;;;;;;;3.56;78.10;100178.53;437220;119;930663;-72
2022/01/05 04:26:32;;;;;;;20.34;16.99;;;;;;;3.53;78.06;100185.10;444460;117;922724;-72
2022/01/05 04:27:35;;;;;;;20.29;17.51;;;;;;;3.51;78.06;100178.23;445411;117;922606;-72
2022/01/05 04:28:40;;;;;;;20.79;15.59;;;;;;;3.50;78.14;100172.00;444825;118;923116;-72
2022/01/05 04:29:43;;;;;;;20.36;16.23;;;;;;;3.50;78.13;100179.24;439058;118;930519;-71
2022/01/05 04:30:48;;;;;;;20.45;16.18;;;;;;;3.49;78.33;100175.70;443985;118;922957;-71
2022/01/05 04:31:51;;;;;;;17.59;15.48;;;;;;;3.50;78.41;100177.39;437081;119;922560;-71
2022/01/05 04:32:55;;;;;;;19.46;16.07;;;;;;;3.49;78.35;100177.56;433577;119;922666;-72
2022/01/05 04:34:00;;;;;;;18.50;15.66;;;;;;;3.49;78.36;100174.86;431298;119;930694;-71
2022/01/05 04:35:06;;;;;;;17.63;14.72;;;;;;;3.49;78.44;100178.40;441558;118;922690;-72
2022/01/05 04:36:11;;;;;;;20.06;15.24;;;;;;;3.50;78.51;100168.46;444643;117;923102;-71
2022/01/05 04:37:15;;;;;;;16.67;14.57;;;;;;;3.51;78.59;100165.59;439291;118;923095;-71
2022/01/05 04:38:18;;;;;;;18.67;14.79;;;;;;;3.52;78.66;100167.28;436566;119;930638;-71
2022/01/05 04:39:22;;;;;;;17.32;14.83;;;;;;;3.51;78.66;100165.59;438840;119;930593;-71
2022/01/05 04:40:25;;;;;;;17.73;14.63;;;;;;;3.51;78.77;100162.06;437219;119;922655;-71
2022/01/05 04:41:29;;;;;;;18.99;15.76;;;;;;;3.50;78.83;100161.22;437076;119;922500;-71
2022/01/05 04:42:32;;;;;;;16.23;14.43;;;;;;;3.50;78.88;100149.59;439917;118;922737;-72
2022/01/05 04:43:36;;;;;;;16.39;14.49;;;;;;;3.49;78.91;100159.53;446986;116;923012;-72
2022/01/05 04:44:40;;;;;;;17.06;15.33;;;;;;;3.50;79.05;100152.29;432172;120;922657;-71
2022/01/05 04:45:43;;;;;;;17.37;15.24;;;;;;;3.52;79.06;100151.11;438881;119;923020;-71
2022/01/05 04:46:47;;;;;;;18.95;16.18;;;;;;;3.52;79.05;100153.80;445176;116;922691;-72
2022/01/05 04:47:50;;;;;;;17.05;15.35;;;;;;;3.53;78.98;100154.64;444884;118;922568;-72
2022/01/05 04:48:53;;;;;;;18.34;15.70;;;;;;;3.53;78.98;100147.36;442168;117;922747;-72
2022/01/05 04:49:56;;;;;;;16.78;14.59;;;;;;;3.52;79.04;100153.80;459654;114;922541;-71